createdAt,value
2017-09-15T00:00:05.157Z,0.50
2017-09-15T00:02:31.099Z,0.60
2017-09-15T00:04:57.097Z,1.23
2017-09-15T00:07:23.796Z,0.50
2017-09-15T00:09:49.758Z,1.37
2017-09-15T00:12:15.775Z,0.50
2017-09-15T00:14:41.738Z,1.43
2017-09-15T00:17:08.425Z,0.70
2017-09-15T00:19:34.425Z,1.00
2017-09-15T00:22:00.364Z,0.60
2017-09-15T00:24:26.305Z,1.27
2017-09-15T00:26:52.281Z,1.33
2017-09-15T00:29:18.273Z,0.60
2017-09-15T00:31:44.285Z,1.10
2017-09-15T00:34:10.229Z,0.53
2017-09-15T00:36:36.921Z,0.50
2017-09-15T00:39:02.905Z,0.40
2017-09-15T00:41:28.886Z,0.70
2017-09-15T00:43:54.841Z,0.50
2017-09-15T00:46:20.830Z,0.63
2017-09-15T00:48:46.805Z,0.97
2017-09-15T00:51:12.817Z,0.60
2017-09-15T00:53:38.766Z,0.80
2017-09-15T00:56:04.717Z,0.90
2017-09-15T00:58:31.449Z,1.83
2017-09-15T01:00:57.405Z,1.47
2017-09-15T01:03:23.376Z,0.60
2017-09-15T01:05:49.336Z,0.50
2017-09-15T01:08:15.352Z,1.23
2017-09-15T01:10:41.284Z,1.03
2017-09-15T01:13:08.017Z,0.80
2017-09-15T01:15:34.003Z,0.80
2017-09-15T01:17:59.933Z,0.80
2017-09-15T01:20:25.877Z,1.00
2017-09-15T01:22:51.851Z,0.60
2017-09-15T01:25:17.805Z,1.10
2017-09-15T01:27:43.816Z,0.70
2017-09-15T01:30:09.790Z,0.80
2017-09-15T01:32:35.728Z,0.73
2017-09-15T01:35:01.705Z,1.00
2017-09-15T01:37:27.968Z,1.13
2017-09-15T01:39:53.921Z,0.87
2017-09-15T01:42:19.864Z,1.10
2017-09-15T01:44:45.866Z,0.80
2017-09-15T01:47:11.843Z,0.70
2017-09-15T01:49:37.807Z,0.73
2017-09-15T01:52:03.749Z,1.60
2017-09-15T01:54:30.482Z,1.80
2017-09-15T01:56:56.427Z,0.93
2017-09-15T01:59:22.382Z,0.90
2017-09-15T02:01:49.114Z,0.73
2017-09-15T02:04:15.101Z,0.93
2017-09-15T02:06:41.089Z,0.80
2017-09-15T02:09:07.042Z,5.50
2017-09-15T02:11:33.746Z,1.47
2017-09-15T02:14:00.514Z,0.97
2017-09-15T02:16:26.466Z,0.90
2017-09-15T02:18:52.427Z,1.10
2017-09-15T02:21:18.437Z,1.90
2017-09-15T02:23:44.401Z,2.30
2017-09-15T02:26:10.356Z,2.03
2017-09-15T02:28:36.323Z,1.07
2017-09-15T02:31:03.026Z,0.90
2017-09-15T02:33:29.012Z,1.43
2017-09-15T02:35:54.998Z,3.33
2017-09-15T02:38:20.997Z,2.43
2017-09-15T02:40:46.998Z,1.30
2017-09-15T02:43:13.764Z,1.10
2017-09-15T02:45:39.726Z,1.00
2017-09-15T02:48:06.451Z,1.67
2017-09-15T02:50:33.197Z,2.90
2017-09-15T02:52:59.161Z,0.60
2017-09-15T02:55:25.143Z,2.00
2017-09-15T02:57:51.168Z,1.47
2017-09-15T03:00:17.170Z,0.67
2017-09-15T03:02:43.171Z,1.03
2017-09-15T03:05:09.149Z,2.30
2017-09-15T03:07:35.102Z,1.83
2017-09-15T03:10:01.091Z,1.20
2017-09-15T03:12:27.069Z,1.07
2017-09-15T03:14:53.058Z,2.70
2017-09-15T03:17:19.814Z,0.93
2017-09-15T03:19:45.803Z,2.10
2017-09-15T03:22:12.503Z,1.87
2017-09-15T03:24:38.501Z,0.70
2017-09-15T03:27:04.454Z,1.00
2017-09-15T03:29:30.417Z,2.30
2017-09-15T03:31:56.412Z,1.63
2017-09-15T03:34:22.418Z,1.00
2017-09-15T03:36:48.399Z,1.97
2017-09-15T03:39:14.407Z,0.80
2017-09-15T03:41:40.369Z,3.13
2017-09-15T03:44:06.328Z,1.70
2017-09-15T03:46:32.315Z,2.33
2017-09-15T03:48:59.018Z,0.90
2017-09-15T03:51:25.011Z,2.10
2017-09-15T03:53:50.961Z,1.17
2017-09-15T03:56:16.946Z,3.07
2017-09-15T03:58:42.922Z,2.30
2017-09-15T04:01:08.868Z,2.03
2017-09-15T04:03:35.602Z,0.73
2017-09-15T04:06:02.301Z,1.43
2017-09-15T04:08:28.298Z,1.40
2017-09-15T04:10:55.031Z,2.47
2017-09-15T04:13:20.977Z,1.60
2017-09-15T04:15:46.975Z,2.50
2017-09-15T04:18:13.747Z,1.57
2017-09-15T04:20:39.698Z,1.00
2017-09-15T04:23:05.642Z,1.80
2017-09-15T04:25:31.677Z,3.33
2017-09-15T04:27:57.631Z,1.00
2017-09-15T04:30:24.354Z,1.07
2017-09-15T04:32:51.102Z,1.37
2017-09-15T04:35:17.152Z,3.20
2017-09-15T04:37:43.128Z,1.10
2017-09-15T04:40:09.094Z,0.87
2017-09-15T04:42:35.071Z,0.80
2017-09-15T04:45:01.045Z,1.40
2017-09-15T04:47:27.834Z,0.87
2017-09-15T04:49:53.786Z,1.13
2017-09-15T04:52:19.758Z,1.93
2017-09-15T04:54:45.759Z,2.17
2017-09-15T04:57:11.723Z,2.27
2017-09-15T04:59:37.709Z,1.00
2017-09-15T05:02:03.714Z,1.17
2017-09-15T05:04:29.670Z,1.40
2017-09-15T05:06:55.622Z,3.67
2017-09-15T05:09:21.607Z,2.60
2017-09-15T05:11:47.572Z,1.37
2017-09-15T05:14:13.558Z,2.60
2017-09-15T05:16:39.531Z,2.53
2017-09-15T05:19:05.485Z,1.33
2017-09-15T05:21:31.470Z,2.80
2017-09-15T05:23:57.458Z,1.60
2017-09-15T05:26:23.408Z,1.50
2017-09-15T05:28:49.358Z,1.77
2017-09-15T05:31:15.358Z,1.70
2017-09-15T05:33:41.314Z,1.60
2017-09-15T05:36:07.310Z,2.10
2017-09-15T05:38:33.330Z,2.33
2017-09-15T05:40:59.293Z,3.20
2017-09-15T05:43:25.246Z,4.57
2017-09-15T05:45:51.286Z,2.33
2017-09-15T05:48:17.977Z,3.90
2017-09-15T05:50:43.965Z,2.60
2017-09-15T05:53:09.952Z,3.03
2017-09-15T05:55:35.942Z,3.70
2017-09-15T05:58:02.683Z,2.00
2017-09-15T06:00:28.650Z,2.57
2017-09-15T06:02:54.602Z,1.97
2017-09-15T06:05:20.602Z,2.40
2017-09-15T06:07:47.299Z,1.63
2017-09-15T06:10:13.274Z,1.90
2017-09-15T06:12:39.257Z,2.20
2017-09-15T06:15:05.240Z,1.53
2017-09-15T06:17:31.984Z,1.63
2017-09-15T06:19:57.934Z,1.70
2017-09-15T06:22:24.691Z,4.23
2017-09-15T06:24:50.719Z,2.20
2017-09-15T06:27:16.671Z,2.20
2017-09-15T06:29:43.378Z,1.30
2017-09-15T06:32:09.370Z,2.30
2017-09-15T06:34:35.331Z,3.70
2017-09-15T06:37:01.278Z,1.40
2017-09-15T06:39:27.305Z,1.90
2017-09-15T06:41:53.326Z,2.63
2017-09-15T06:44:19.282Z,2.60
2017-09-15T06:46:45.245Z,4.13
2017-09-15T06:49:11.994Z,2.20
2017-09-15T06:51:38.706Z,1.53
2017-09-15T06:54:05.447Z,2.80
2017-09-15T06:56:32.147Z,1.90
2017-09-15T06:58:58.106Z,1.70
2017-09-15T07:01:24.114Z,2.30
2017-09-15T07:03:50.076Z,1.47
2017-09-15T07:06:16.034Z,1.37
2017-09-15T07:08:42.023Z,3.10
2017-09-15T07:11:07.975Z,2.33
2017-09-15T07:13:33.997Z,2.60
2017-09-15T07:15:59.954Z,1.77
2017-09-15T07:18:25.978Z,1.90
2017-09-15T07:20:51.982Z,2.10
2017-09-15T07:23:17.934Z,1.60
2017-09-15T07:25:43.922Z,5.47
2017-09-15T07:28:09.906Z,1.83
2017-09-15T07:30:35.890Z,2.90
2017-09-15T07:33:02.592Z,2.37
2017-09-15T07:35:28.541Z,3.03
2017-09-15T07:37:54.546Z,1.50
2017-09-15T07:40:21.277Z,1.80
2017-09-15T07:42:47.270Z,3.23
2017-09-15T07:45:13.958Z,3.87
2017-09-15T07:47:39.906Z,2.20
2017-09-15T07:50:06.641Z,2.40
2017-09-15T07:52:33.330Z,2.20
2017-09-15T07:54:59.317Z,2.33
2017-09-15T07:57:25.311Z,1.50
2017-09-15T07:59:51.309Z,1.53
2017-09-15T08:02:17.302Z,1.63
2017-09-15T08:04:43.251Z,2.00
2017-09-15T08:07:09.234Z,2.33
2017-09-15T08:09:35.183Z,2.80
2017-09-15T08:12:01.165Z,1.83
2017-09-15T08:14:27.173Z,1.90
2017-09-15T08:16:53.152Z,2.10
2017-09-15T08:19:19.121Z,2.90
2017-09-15T08:21:45.130Z,2.20
2017-09-15T08:24:11.090Z,1.83
2017-09-15T08:26:37.085Z,5.03
2017-09-15T08:29:03.038Z,3.77
2017-09-15T08:31:28.990Z,2.23
2017-09-15T08:33:55.719Z,4.60
2017-09-15T08:36:22.438Z,2.00
2017-09-15T08:38:49.169Z,2.33
2017-09-15T08:41:15.882Z,2.60
2017-09-15T08:43:41.882Z,2.40
2017-09-15T08:46:07.834Z,3.60
2017-09-15T08:48:33.796Z,2.70
2017-09-15T08:50:59.819Z,2.00
2017-09-15T08:53:26.551Z,2.77
2017-09-15T08:55:53.273Z,5.57
2017-09-15T08:58:20.006Z,4.80
2017-09-15T09:00:46.721Z,3.23
2017-09-15T09:03:12.678Z,4.50
2017-09-15T09:05:38.666Z,1.90
2017-09-15T09:08:04.653Z,1.73
2017-09-15T09:10:31.350Z,2.23
2017-09-15T09:12:57.367Z,1.70
2017-09-15T09:15:24.113Z,2.17
2017-09-15T09:17:50.814Z,3.10
2017-09-15T09:20:16.800Z,1.60
2017-09-15T09:22:43.502Z,3.87
2017-09-15T09:25:09.486Z,2.03
2017-09-15T09:27:35.439Z,2.10
2017-09-15T09:30:02.170Z,1.70
2017-09-15T09:32:28.875Z,2.73
2017-09-15T09:34:54.838Z,1.70
2017-09-15T09:37:20.829Z,1.70
2017-09-15T09:39:46.815Z,4.40
2017-09-15T09:42:13.538Z,2.33
2017-09-15T09:44:40.281Z,1.97
2017-09-15T09:47:06.230Z,2.37
2017-09-15T09:49:32.178Z,1.90
2017-09-15T09:51:58.922Z,3.80
2017-09-15T09:54:24.938Z,1.60
2017-09-15T09:56:50.893Z,2.03
2017-09-15T09:59:16.851Z,1.67
2017-09-15T10:01:42.841Z,1.63
2017-09-15T10:04:09.534Z,2.10
2017-09-15T10:06:35.531Z,2.60
2017-09-15T10:09:01.494Z,2.60
2017-09-15T10:11:27.480Z,3.87
2017-09-15T10:13:54.254Z,1.77
2017-09-15T10:16:20.210Z,2.90
2017-09-15T10:18:46.166Z,2.20
2017-09-15T10:21:12.182Z,2.07
2017-09-15T10:23:38.139Z,2.90
2017-09-15T10:26:04.126Z,2.40
2017-09-15T10:28:30.073Z,5.53
2017-09-15T10:30:56.042Z,3.13
2017-09-15T10:33:22.034Z,2.67
2017-09-15T10:35:48.731Z,1.70
2017-09-15T10:38:14.690Z,2.87
2017-09-15T10:40:40.694Z,2.67
2017-09-15T10:43:06.722Z,2.53
2017-09-15T10:45:32.669Z,1.77
2017-09-15T10:47:58.666Z,1.53
2017-09-15T10:50:24.675Z,2.13
2017-09-15T10:52:50.658Z,2.90
2017-09-15T10:55:16.650Z,1.77
2017-09-15T10:57:48.819Z,2.90
2017-09-15T11:00:14.790Z,1.57
2017-09-15T11:02:41.535Z,1.90
2017-09-15T11:05:07.490Z,1.80
2017-09-15T11:07:33.482Z,4.00
2017-09-15T11:09:59.453Z,2.23
2017-09-15T11:12:25.415Z,6.10
2017-09-15T11:14:51.411Z,1.73
2017-09-15T11:17:17.399Z,2.23
2017-09-15T11:19:43.366Z,1.90
2017-09-15T11:22:09.381Z,1.50
2017-09-15T11:24:35.362Z,3.67
2017-09-15T11:27:02.101Z,2.40
2017-09-15T11:29:28.822Z,2.00
2017-09-15T11:31:55.566Z,1.60
2017-09-15T11:34:21.518Z,1.60
2017-09-15T11:36:47.466Z,2.80
2017-09-15T11:39:14.200Z,2.00
2017-09-15T11:41:40.188Z,1.73
2017-09-15T11:44:06.925Z,2.00
2017-09-15T11:46:32.941Z,1.47
2017-09-15T11:48:58.894Z,1.70
2017-09-15T11:51:24.910Z,2.03
2017-09-15T11:53:50.867Z,3.50
2017-09-15T11:56:16.818Z,1.63
2017-09-15T11:58:42.832Z,2.30
2017-09-15T12:01:08.790Z,1.97
2017-09-15T12:03:34.771Z,1.40
2017-09-15T12:06:00.782Z,2.10
2017-09-15T12:08:26.735Z,2.60
2017-09-15T12:10:52.689Z,1.60
2017-09-15T12:13:18.678Z,2.77
2017-09-15T12:15:44.705Z,1.70
2017-09-15T12:18:10.658Z,5.27
2017-09-15T12:20:37.355Z,1.43
2017-09-15T12:23:03.378Z,1.63
2017-09-15T12:25:29.351Z,1.57
2017-09-15T12:27:55.359Z,2.23
2017-09-15T12:30:21.378Z,1.83
2017-09-15T12:32:47.330Z,2.80
2017-09-15T12:35:14.027Z,1.50
2017-09-15T12:37:40.020Z,1.40
2017-09-15T12:40:05.974Z,1.40
2017-09-15T12:42:32.670Z,3.03
2017-09-15T12:44:58.682Z,2.53
2017-09-15T12:47:24.649Z,3.07
2017-09-15T12:49:50.597Z,1.60
2017-09-15T12:52:16.601Z,4.67
2017-09-15T12:54:42.579Z,1.40
2017-09-15T12:57:08.562Z,1.47
2017-09-15T12:59:34.515Z,3.23
2017-09-15T13:02:00.517Z,2.50
2017-09-15T13:04:26.515Z,2.70
2017-09-15T13:06:52.474Z,3.10
2017-09-15T13:09:19.205Z,2.20
2017-09-15T13:11:45.910Z,1.90
2017-09-15T13:14:11.898Z,1.77
2017-09-15T13:16:37.846Z,2.13
2017-09-15T13:19:04.578Z,1.53
2017-09-15T13:21:31.280Z,1.90
2017-09-15T13:23:57.246Z,3.87
2017-09-15T13:26:23.250Z,1.53
2017-09-15T13:28:49.231Z,1.30
2017-09-15T13:31:15.934Z,1.60
2017-09-15T13:33:41.950Z,2.07
2017-09-15T13:36:07.915Z,1.53
2017-09-15T13:38:33.915Z,3.00
2017-09-15T13:40:59.946Z,1.77
2017-09-15T13:43:25.926Z,1.60
2017-09-15T13:45:51.950Z,1.40
2017-09-15T13:48:17.941Z,1.43
2017-09-15T13:50:43.929Z,2.43
2017-09-15T13:53:10.634Z,1.80
2017-09-15T13:55:36.646Z,1.97
2017-09-15T13:58:02.598Z,1.40
2017-09-15T14:00:28.567Z,1.40
2017-09-15T14:02:54.665Z,1.90
2017-09-15T14:05:21.372Z,1.20
2017-09-15T14:07:47.337Z,2.30
2017-09-15T14:10:13.341Z,1.43
2017-09-15T14:12:39.294Z,1.70
2017-09-15T14:15:05.258Z,4.17
2017-09-15T14:17:31.278Z,1.73
2017-09-15T14:19:57.268Z,2.03
2017-09-15T14:22:23.230Z,1.40
2017-09-15T14:24:49.253Z,1.13
2017-09-15T14:27:15.231Z,1.40
2017-09-15T14:29:41.240Z,2.17
2017-09-15T14:32:07.982Z,1.67
2017-09-15T14:34:33.946Z,1.53
2017-09-15T14:36:59.926Z,1.63
2017-09-15T14:39:26.699Z,2.27
2017-09-15T14:41:52.702Z,1.00
2017-09-15T14:44:18.653Z,1.80
2017-09-15T14:46:45.358Z,2.20
2017-09-15T14:49:11.351Z,1.20
2017-09-15T14:51:38.045Z,1.10
2017-09-15T14:54:04.058Z,5.20
2017-09-15T14:56:30.060Z,1.93
2017-09-15T14:58:56.066Z,1.73
2017-09-15T15:01:22.024Z,2.10
2017-09-15T15:03:48.038Z,1.63
2017-09-15T15:06:14.022Z,1.83
2017-09-15T15:08:39.977Z,1.63
2017-09-15T15:11:06.766Z,2.03
2017-09-15T15:13:32.726Z,1.80
2017-09-15T15:15:58.826Z,1.60
2017-09-15T15:18:24.790Z,1.53
2017-09-15T15:20:51.554Z,1.27
2017-09-15T15:23:17.547Z,1.50
2017-09-15T15:25:43.506Z,1.40
2017-09-15T15:28:10.258Z,1.00
2017-09-15T15:30:36.206Z,1.57
2017-09-15T15:33:02.198Z,1.83
2017-09-15T15:35:28.178Z,2.40
2017-09-15T15:37:54.190Z,1.93
2017-09-15T15:40:20.134Z,1.50
2017-09-15T15:42:46.122Z,1.77
2017-09-15T15:45:12.114Z,1.00
2017-09-15T15:47:38.066Z,1.30
2017-09-15T15:50:04.054Z,1.47
2017-09-15T15:52:30.046Z,1.77
2017-09-15T15:54:56.003Z,1.17
2017-09-15T15:57:22.745Z,3.47
2017-09-15T15:59:48.702Z,2.00
2017-09-15T16:02:14.661Z,1.80
2017-09-15T16:04:40.661Z,1.37
2017-09-15T16:07:06.630Z,1.73
2017-09-15T16:09:32.615Z,1.40
2017-09-15T16:11:58.623Z,1.00
2017-09-15T16:14:24.566Z,1.20
2017-09-15T16:16:50.528Z,1.77
2017-09-15T16:19:16.526Z,2.10
2017-09-15T16:21:42.518Z,1.67
2017-09-15T16:24:08.515Z,1.60
2017-09-15T16:26:35.265Z,1.90
2017-09-15T16:29:01.226Z,1.60
2017-09-15T16:31:27.217Z,1.70
2017-09-15T16:33:53.169Z,1.40
2017-09-15T16:36:19.122Z,2.97
2017-09-15T16:38:52.227Z,1.53
2017-09-15T16:41:24.294Z,1.93
2017-09-15T16:43:56.382Z,2.13
2017-09-15T16:46:28.485Z,1.40
2017-09-15T16:49:00.690Z,2.10
2017-09-15T16:51:26.650Z,3.50
2017-09-15T16:53:52.609Z,2.33
2017-09-15T16:56:19.330Z,1.60
2017-09-15T16:58:45.278Z,3.50
2017-09-15T17:01:11.270Z,2.17
2017-09-15T17:03:38.037Z,2.40
2017-09-15T17:06:04.021Z,2.10
2017-09-15T17:08:30.030Z,2.10
2017-09-15T17:10:56.006Z,2.27
2017-09-15T17:13:22.697Z,2.17
2017-09-15T17:15:48.701Z,2.73
2017-09-15T17:18:14.711Z,2.90
2017-09-15T17:20:40.752Z,2.73
2017-09-15T17:23:06.758Z,2.40
2017-09-15T17:25:32.714Z,2.90
2017-09-15T17:27:59.082Z,3.30
2017-09-15T17:30:25.850Z,4.03
2017-09-15T17:32:51.829Z,3.40
2017-09-15T17:35:18.573Z,3.70
2017-09-15T17:37:45.351Z,4.23
2017-09-15T17:40:11.338Z,5.77
2017-09-15T17:42:37.363Z,4.47
2017-09-15T17:45:03.314Z,5.50
2017-09-15T17:47:30.018Z,5.30
2017-09-15T17:49:56.010Z,5.57
2017-09-15T17:52:21.998Z,5.43
2017-09-15T17:54:47.987Z,5.13
2017-09-15T17:57:13.934Z,8.20
2017-09-15T17:59:39.934Z,6.63
2017-09-15T18:02:06.002Z,6.77
2017-09-15T18:04:31.961Z,7.47
2017-09-15T18:06:57.918Z,9.37
2017-09-15T18:09:24.682Z,4.73
2017-09-15T18:11:50.756Z,5.37
2017-09-15T18:14:17.493Z,4.83
2017-09-15T18:16:43.450Z,5.07
2017-09-15T18:19:09.473Z,6.57
2017-09-15T18:21:35.470Z,5.40
2017-09-15T18:24:02.250Z,5.53
2017-09-15T18:26:28.210Z,5.60
2017-09-15T18:28:54.194Z,5.50
2017-09-15T18:31:20.149Z,4.93
2017-09-15T18:33:46.970Z,5.47
2017-09-15T18:36:13.672Z,4.53
2017-09-15T18:38:39.667Z,5.23
2017-09-15T18:41:05.762Z,6.20
2017-09-15T18:43:31.710Z,6.30
2017-09-15T18:45:57.662Z,6.37
2017-09-15T18:48:23.654Z,6.33
2017-09-15T18:50:50.342Z,5.80
2017-09-15T18:53:16.341Z,5.67
2017-09-15T18:55:42.337Z,6.33
2017-09-15T18:58:08.351Z,5.97
2017-09-15T19:00:34.333Z,7.70
2017-09-15T19:03:00.366Z,6.60
2017-09-15T19:05:26.358Z,5.87
2017-09-15T19:07:52.309Z,5.50
2017-09-15T19:10:18.326Z,5.07
2017-09-15T19:12:44.283Z,5.07
2017-09-15T19:15:10.282Z,5.40
2017-09-15T19:17:36.350Z,7.43
2017-09-15T19:20:02.348Z,6.90
2017-09-15T19:22:28.354Z,6.00
2017-09-15T19:24:54.346Z,6.27
2017-09-15T19:27:20.410Z,6.73
2017-09-15T19:29:47.176Z,6.57
2017-09-15T19:32:13.210Z,6.40
2017-09-15T19:34:39.289Z,5.13
2017-09-15T19:37:05.296Z,7.73
2017-09-15T19:39:31.354Z,6.77
2017-09-15T19:41:57.315Z,6.27
2017-09-15T19:44:23.308Z,5.60
2017-09-15T19:46:49.364Z,6.77
2017-09-15T19:49:15.326Z,6.70
2017-09-15T19:51:41.330Z,6.13
2017-09-15T19:54:07.436Z,6.00
2017-09-15T19:56:33.488Z,6.90
2017-09-15T19:58:59.500Z,6.47
2017-09-15T20:01:25.502Z,6.73
2017-09-15T20:03:51.454Z,6.13
2017-09-15T20:06:18.154Z,7.20
2017-09-15T20:08:44.159Z,6.40
2017-09-15T20:11:10.185Z,6.13
2017-09-15T20:13:36.226Z,6.37
2017-09-15T20:16:02.220Z,8.47
2017-09-15T20:18:28.919Z,7.17
2017-09-15T20:20:54.915Z,10.53
2017-09-15T20:23:20.885Z,7.57
2017-09-15T20:25:46.865Z,10.43
2017-09-15T20:28:13.566Z,7.23
2017-09-15T20:30:39.558Z,6.97
2017-09-15T20:33:05.609Z,10.90
2017-09-15T20:35:32.318Z,8.53
2017-09-15T20:37:58.306Z,6.00
2017-09-15T20:40:24.343Z,8.60
2017-09-15T20:42:50.309Z,7.63
2017-09-15T20:45:16.312Z,7.30
2017-09-15T20:47:42.318Z,6.00
2017-09-15T20:50:08.319Z,6.40
2017-09-15T20:52:34.361Z,7.07
2017-09-15T20:55:00.354Z,6.07
2017-09-15T20:57:26.347Z,7.87
2017-09-15T20:59:52.344Z,5.77
2017-09-15T21:02:18.326Z,7.87
2017-09-15T21:04:44.324Z,6.30
2017-09-15T21:07:10.339Z,6.27
2017-09-15T21:09:36.374Z,6.47
2017-09-15T21:12:02.370Z,6.23
2017-09-15T21:14:29.070Z,6.13
2017-09-15T21:16:55.120Z,5.77
2017-09-15T21:19:21.822Z,6.20
2017-09-15T21:21:47.780Z,6.43
2017-09-15T21:24:13.773Z,5.70
2017-09-15T21:26:39.810Z,6.37
2017-09-15T21:29:05.870Z,5.20
2017-09-15T21:31:32.582Z,5.30
2017-09-15T21:33:58.543Z,5.50
2017-09-15T21:36:24.547Z,5.90
2017-09-15T21:38:50.497Z,7.10
2017-09-15T21:41:16.486Z,6.60
2017-09-15T21:43:42.482Z,5.07
2017-09-15T21:46:08.482Z,5.43
2017-09-15T21:48:34.433Z,7.07
2017-09-15T21:51:00.406Z,6.27
2017-09-15T21:53:26.398Z,6.77
2017-09-15T21:55:52.342Z,6.70
2017-09-15T21:58:18.328Z,8.07
2017-09-15T22:00:44.310Z,6.73
2017-09-15T22:03:10.278Z,7.30
2017-09-15T22:05:36.302Z,6.23
2017-09-15T22:08:02.282Z,7.20
2017-09-15T22:10:28.271Z,5.63
2017-09-15T22:12:54.222Z,7.00
2017-09-15T22:15:20.173Z,5.90
2017-09-15T22:17:46.174Z,7.73
2017-09-15T22:20:12.149Z,7.10
2017-09-15T22:22:38.906Z,6.17
2017-09-15T22:25:04.858Z,6.27
2017-09-15T22:27:30.814Z,6.90
2017-09-15T22:29:57.554Z,5.80
2017-09-15T22:32:23.531Z,6.47
2017-09-15T22:34:49.475Z,5.57
2017-09-15T22:37:15.456Z,6.17
2017-09-15T22:39:42.170Z,5.60
2017-09-15T22:42:08.186Z,6.33
2017-09-15T22:44:34.909Z,7.50
2017-09-15T22:47:01.679Z,6.10
2017-09-15T22:49:27.617Z,5.57
2017-09-15T22:51:53.574Z,6.40
2017-09-15T22:54:28.733Z,6.40
2017-09-15T22:56:54.718Z,5.67
2017-09-15T22:59:20.713Z,5.70
2017-09-15T23:01:46.670Z,8.23
2017-09-15T23:04:12.630Z,7.37
2017-09-15T23:06:38.633Z,5.63
2017-09-15T23:09:05.363Z,5.53
2017-09-15T23:11:31.315Z,8.03
2017-09-15T23:13:57.257Z,6.17
2017-09-15T23:16:23.978Z,4.90
2017-09-15T23:18:49.935Z,5.70
2017-09-15T23:21:15.918Z,5.90
2017-09-15T23:23:41.874Z,5.30
2017-09-15T23:26:07.870Z,6.00
2017-09-15T23:28:33.854Z,6.00
2017-09-15T23:30:59.834Z,5.67
2017-09-15T23:33:26.527Z,5.13
2017-09-15T23:35:52.546Z,6.50
2017-09-15T23:38:18.532Z,5.40
2017-09-15T23:40:44.482Z,6.00
2017-09-15T23:43:11.242Z,5.50
2017-09-15T23:45:37.226Z,5.43
2017-09-15T23:48:03.927Z,5.53
2017-09-15T23:50:29.912Z,5.50
2017-09-15T23:52:55.865Z,8.77
2017-09-15T23:55:22.559Z,6.40
2017-09-15T23:57:48.545Z,5.73
